sensor_id;sensor_type;location;lat;lon;timestamp;P1;durP1;ratioP1;P2;durP2;ratioP2
14231;SDS011;7200;52.194;9.900;2023-04-25T00:01:10;3.23;;;2.43;;
14231;SDS011;7200;52.194;9.900;2023-04-25T00:03:37;5.33;;;2.30;;
14231;SDS011;7200;52.194;9.900;2023-04-25T00:06:03;9.73;;;3.60;;
14231;SDS011;7200;52.194;9.900;2023-04-25T00:08:29;8.23;;;3.27;;
14231;SDS011;7200;52.194;9.900;2023-04-25T00:10:55;10.03;;;3.70;;
14231;SDS011;7200;52.194;9.900;2023-04-25T00:13:21;0.40;;;0.40;;
14231;SDS011;7200;52.194;9.900;2023-04-25T00:15:47;0.30;;;0.30;;
14231;SDS011;7200;52.194;9.900;2023-04-25T00:18:13;11.60;;;3.63;;
14231;SDS011;7200;52.194;9.900;2023-04-25T00:20:38;5.27;;;2.63;;
14231;SDS011;7200;52.194;9.900;2023-04-25T00:23:04;7.03;;;4.67;;
14231;SDS011;7200;52.194;9.900;2023-04-25T00:25:30;9.87;;;3.63;;
14231;SDS011;7200;52.194;9.900;2023-04-25T00:27:55;1.53;;;1.40;;
14231;SDS011;7200;52.194;9.900;2023-04-25T00:30:20;7.40;;;4.07;;
14231;SDS011;7200;52.194;9.900;2023-04-25T00:32:45;3.43;;;2.57;;
14231;SDS011;7200;52.194;9.900;2023-04-25T00:35:11;4.20;;;2.33;;
14231;SDS011;7200;52.194;9.900;2023-04-25T00:37:36;4.63;;;2.87;;
14231;SDS011;7200;52.194;9.900;2023-04-25T00:40:02;8.10;;;4.00;;
14231;SDS011;7200;52.194;9.900;2023-04-25T00:42:31;3.97;;;2.77;;
14231;SDS011;7200;52.194;9.900;2023-04-25T00:44:57;6.10;;;4.27;;
14231;SDS011;7200;52.194;9.900;2023-04-25T00:47:23;4.60;;;3.90;;
14231;SDS011;7200;52.194;9.900;2023-04-25T00:49:50;7.37;;;4.87;;
14231;SDS011;7200;52.194;9.900;2023-04-25T00:52:15;8.17;;;5.37;;
14231;SDS011;7200;52.194;9.900;2023-04-25T00:54:40;7.63;;;4.67;;
14231;SDS011;7200;52.194;9.900;2023-04-25T00:57:06;6.07;;;5.47;;
14231;SDS011;7200;52.194;9.900;2023-04-25T00:59:31;12.63;;;5.77;;
14231;SDS011;7200;52.194;9.900;2023-04-25T01:01:56;13.03;;;3.67;;
14231;SDS011;7200;52.194;9.900;2023-04-25T01:04:23;10.37;;;4.93;;
14231;SDS011;7200;52.194;9.900;2023-04-25T01:06:48;4.50;;;3.70;;
14231;SDS011;7200;52.194;9.900;2023-04-25T01:09:14;6.93;;;5.37;;
14231;SDS011;7200;52.194;9.900;2023-04-25T01:11:39;8.07;;;4.60;;
14231;SDS011;7200;52.194;9.900;2023-04-25T01:14:05;3.37;;;3.00;;
14231;SDS011;7200;52.194;9.900;2023-04-25T01:16:31;7.50;;;5.10;;
14231;SDS011;7200;52.194;9.900;2023-04-25T01:18:56;8.53;;;3.77;;
14231;SDS011;7200;52.194;9.900;2023-04-25T01:21:22;6.63;;;2.30;;
14231;SDS011;7200;52.194;9.900;2023-04-25T01:23:47;6.77;;;3.90;;
14231;SDS011;7200;52.194;9.900;2023-04-25T01:26:13;5.97;;;3.47;;
14231;SDS011;7200;52.194;9.900;2023-04-25T01:28:39;10.40;;;7.07;;
14231;SDS011;7200;52.194;9.900;2023-04-25T01:31:08;10.73;;;5.90;;
14231;SDS011;7200;52.194;9.900;2023-04-25T01:33:34;8.90;;;5.40;;
14231;SDS011;7200;52.194;9.900;2023-04-25T01:35:59;13.30;;;6.03;;
14231;SDS011;7200;52.194;9.900;2023-04-25T01:38:25;7.20;;;6.50;;
14231;SDS011;7200;52.194;9.900;2023-04-25T01:40:50;11.30;;;3.30;;
14231;SDS011;7200;52.194;9.900;2023-04-25T01:43:17;13.53;;;5.77;;
14231;SDS011;7200;52.194;9.900;2023-04-25T01:45:42;5.60;;;3.83;;
14231;SDS011;7200;52.194;9.900;2023-04-25T01:48:08;6.97;;;3.50;;
14231;SDS011;7200;52.194;9.900;2023-04-25T01:50:34;4.93;;;4.30;;
14231;SDS011;7200;52.194;9.900;2023-04-25T01:53:00;2.30;;;2.10;;
14231;SDS011;7200;52.194;9.900;2023-04-25T01:55:26;10.23;;;5.97;;
14231;SDS011;7200;52.194;9.900;2023-04-25T01:57:52;3.50;;;3.20;;
14231;SDS011;7200;52.194;9.900;2023-04-25T02:00:17;10.87;;;6.37;;
14231;SDS011;7200;52.194;9.900;2023-04-25T02:02:43;1.63;;;1.53;;
14231;SDS011;7200;52.194;9.900;2023-04-25T02:05:08;3.83;;;3.47;;
14231;SDS011;7200;52.194;9.900;2023-04-25T02:07:34;6.63;;;4.77;;
14231;SDS011;7200;52.194;9.900;2023-04-25T02:10:00;10.20;;;7.80;;
14231;SDS011;7200;52.194;9.900;2023-04-25T02:12:26;3.50;;;3.20;;
14231;SDS011;7200;52.194;9.900;2023-04-25T02:14:52;8.23;;;4.53;;
14231;SDS011;7200;52.194;9.900;2023-04-25T02:17:17;3.93;;;3.53;;
14231;SDS011;7200;52.194;9.900;2023-04-25T02:19:43;14.53;;;4.80;;
14231;SDS011;7200;52.194;9.900;2023-04-25T02:22:08;11.93;;;7.17;;
14231;SDS011;7200;52.194;9.900;2023-04-25T02:24:33;2.67;;;2.33;;
14231;SDS011;7200;52.194;9.900;2023-04-25T02:26:59;12.70;;;8.07;;
14231;SDS011;7200;52.194;9.900;2023-04-25T02:29:25;12.93;;;5.70;;
14231;SDS011;7200;52.194;9.900;2023-04-25T02:31:50;13.07;;;7.87;;
14231;SDS011;7200;52.194;9.900;2023-04-25T02:34:15;4.83;;;3.10;;
14231;SDS011;7200;52.194;9.900;2023-04-25T02:36:41;8.23;;;6.63;;
14231;SDS011;7200;52.194;9.900;2023-04-25T02:39:06;5.50;;;3.17;;
14231;SDS011;7200;52.194;9.900;2023-04-25T02:41:31;7.63;;;4.83;;
14231;SDS011;7200;52.194;9.900;2023-04-25T02:43:57;8.67;;;5.63;;
14231;SDS011;7200;52.194;9.900;2023-04-25T02:46:22;6.97;;;4.03;;
14231;SDS011;7200;52.194;9.900;2023-04-25T02:48:47;11.57;;;7.23;;
14231;SDS011;7200;52.194;9.900;2023-04-25T02:51:13;7.97;;;4.90;;
14231;SDS011;7200;52.194;9.900;2023-04-25T02:53:38;9.57;;;7.67;;
14231;SDS011;7200;52.194;9.900;2023-04-25T02:56:04;5.53;;;4.13;;
14231;SDS011;7200;52.194;9.900;2023-04-25T02:58:30;12.87;;;6.37;;
14231;SDS011;7200;52.194;9.900;2023-04-25T03:00:55;3.83;;;2.87;;
14231;SDS011;7200;52.194;9.900;2023-04-25T03:03:20;5.53;;;3.37;;
14231;SDS011;7200;52.194;9.900;2023-04-25T03:05:49;6.17;;;5.43;;
14231;SDS011;7200;52.194;9.900;2023-04-25T03:08:15;6.80;;;3.17;;
14231;SDS011;7200;52.194;9.900;2023-04-25T03:10:41;6.70;;;1.77;;
14231;SDS011;7200;52.194;9.900;2023-04-25T03:13:07;10.17;;;3.73;;
14231;SDS011;7200;52.194;9.900;2023-04-25T03:15:32;4.47;;;2.50;;
14231;SDS011;7200;52.194;9.900;2023-04-25T03:17:57;14.70;;;2.33;;
14231;SDS011;7200;52.194;9.900;2023-04-25T03:20:23;4.23;;;1.53;;
14231;SDS011;7200;52.194;9.900;2023-04-25T03:22:48;0.53;;;0.53;;
14231;SDS011;7200;52.194;9.900;2023-04-25T03:25:14;1.33;;;1.23;;
14231;SDS011;7200;52.194;9.900;2023-04-25T03:27:39;7.10;;;0.87;;
14231;SDS011;7200;52.194;9.900;2023-04-25T03:30:04;6.73;;;4.63;;
14231;SDS011;7200;52.194;9.900;2023-04-25T03:32:31;3.87;;;1.53;;
14231;SDS011;7200;52.194;9.900;2023-04-25T03:34:57;6.87;;;2.00;;
14231;SDS011;7200;52.194;9.900;2023-04-25T03:37:22;3.47;;;1.37;;
14231;SDS011;7200;52.194;9.900;2023-04-25T03:39:47;9.53;;;3.50;;
14231;SDS011;7200;52.194;9.900;2023-04-25T03:42:12;0.63;;;0.63;;
14231;SDS011;7200;52.194;9.900;2023-04-25T03:44:38;4.70;;;1.17;;
14231;SDS011;7200;52.194;9.900;2023-04-25T03:47:03;4.53;;;1.00;;
14231;SDS011;7200;52.194;9.900;2023-04-25T03:49:28;1.60;;;1.30;;
14231;SDS011;7200;52.194;9.900;2023-04-25T03:51:54;4.77;;;2.13;;
14231;SDS011;7200;52.194;9.900;2023-04-25T03:54:19;0.57;;;0.57;;
14231;SDS011;7200;52.194;9.900;2023-04-25T03:56:45;2.27;;;1.40;;
14231;SDS011;7200;52.194;9.900;2023-04-25T03:59:10;7.90;;;3.43;;
14231;SDS011;7200;52.194;9.900;2023-04-25T04:01:35;5.63;;;1.47;;
14231;SDS011;7200;52.194;9.900;2023-04-25T04:04:01;3.70;;;1.63;;
14231;SDS011;7200;52.194;9.900;2023-04-25T04:06:26;6.70;;;4.20;;
14231;SDS011;7200;52.194;9.900;2023-04-25T04:08:51;0.40;;;0.40;;
14231;SDS011;7200;52.194;9.900;2023-04-25T04:11:17;0.17;;;0.17;;
14231;SDS011;7200;52.194;9.900;2023-04-25T04:13:42;1.20;;;0.77;;
14231;SDS011;7200;52.194;9.900;2023-04-25T04:16:07;1.47;;;1.37;;
14231;SDS011;7200;52.194;9.900;2023-04-25T04:18:33;6.40;;;1.93;;
14231;SDS011;7200;52.194;9.900;2023-04-25T04:20:58;1.60;;;0.93;;
14231;SDS011;7200;52.194;9.900;2023-04-25T04:23:24;5.20;;;1.80;;
14231;SDS011;7200;52.194;9.900;2023-04-25T04:25:49;6.47;;;2.90;;
14231;SDS011;7200;52.194;9.900;2023-04-25T04:28:15;0.70;;;0.70;;
14231;SDS011;7200;52.194;9.900;2023-04-25T04:30:41;3.10;;;1.43;;
14231;SDS011;7200;52.194;9.900;2023-04-25T04:33:07;0.40;;;0.40;;
14231;SDS011;7200;52.194;9.900;2023-04-25T04:35:35;5.50;;;1.80;;
14231;SDS011;7200;52.194;9.900;2023-04-25T04:38:01;5.83;;;2.67;;
14231;SDS011;7200;52.194;9.900;2023-04-25T04:40:26;7.37;;;2.30;;
14231;SDS011;7200;52.194;9.900;2023-04-25T04:42:52;0.40;;;0.40;;
14231;SDS011;7200;52.194;9.900;2023-04-25T04:45:18;18.83;;;3.07;;
14231;SDS011;7200;52.194;9.900;2023-04-25T04:47:43;4.17;;;1.30;;
14231;SDS011;7200;52.194;9.900;2023-04-25T04:50:10;6.43;;;3.73;;
14231;SDS011;7200;52.194;9.900;2023-04-25T04:52:36;6.60;;;1.27;;
14231;SDS011;7200;52.194;9.900;2023-04-25T04:55:03;12.93;;;2.73;;
14231;SDS011;7200;52.194;9.900;2023-04-25T04:57:29;5.80;;;1.13;;
14231;SDS011;7200;52.194;9.900;2023-04-25T04:59:54;4.07;;;1.33;;
14231;SDS011;7200;52.194;9.900;2023-04-25T05:02:20;6.57;;;3.83;;
14231;SDS011;7200;52.194;9.900;2023-04-25T05:04:45;9.83;;;1.17;;
14231;SDS011;7200;52.194;9.900;2023-04-25T05:07:11;5.37;;;2.97;;
14231;SDS011;7200;52.194;9.900;2023-04-25T05:09:37;7.00;;;1.80;;
14231;SDS011;7200;52.194;9.900;2023-04-25T05:12:02;9.13;;;1.53;;
14231;SDS011;7200;52.194;9.900;2023-04-25T05:14:27;11.93;;;3.37;;
14231;SDS011;7200;52.194;9.900;2023-04-25T05:16:53;7.73;;;2.30;;
14231;SDS011;7200;52.194;9.900;2023-04-25T05:19:18;2.40;;;1.30;;
14231;SDS011;7200;52.194;9.900;2023-04-25T05:21:43;5.10;;;1.80;;
14231;SDS011;7200;52.194;9.900;2023-04-25T05:24:09;9.00;;;3.87;;
14231;SDS011;7200;52.194;9.900;2023-04-25T05:26:34;7.83;;;1.90;;
14231;SDS011;7200;52.194;9.900;2023-04-25T05:28:59;2.27;;;2.07;;
14231;SDS011;7200;52.194;9.900;2023-04-25T05:31:25;18.03;;;4.27;;
14231;SDS011;7200;52.194;9.900;2023-04-25T05:33:51;0.47;;;0.47;;
14231;SDS011;7200;52.194;9.900;2023-04-25T05:36:17;0.57;;;0.50;;
14231;SDS011;7200;52.194;9.900;2023-04-25T05:38:43;7.67;;;2.50;;
14231;SDS011;7200;52.194;9.900;2023-04-25T05:41:08;6.60;;;2.47;;
14231;SDS011;7200;52.194;9.900;2023-04-25T05:43:34;11.03;;;1.03;;
14231;SDS011;7200;52.194;9.900;2023-04-25T05:46:00;6.57;;;3.10;;
14231;SDS011;7200;52.194;9.900;2023-04-25T05:48:25;17.47;;;5.27;;
14231;SDS011;7200;52.194;9.900;2023-04-25T05:50:50;1.43;;;0.87;;
14231;SDS011;7200;52.194;9.900;2023-04-25T05:53:16;6.00;;;2.50;;
14231;SDS011;7200;52.194;9.900;2023-04-25T05:55:42;7.30;;;3.30;;
14231;SDS011;7200;52.194;9.900;2023-04-25T05:58:07;1.97;;;0.80;;
14231;SDS011;7200;52.194;9.900;2023-04-25T06:00:33;7.83;;;2.30;;
14231;SDS011;7200;52.194;9.900;2023-04-25T06:02:59;6.27;;;2.60;;
14231;SDS011;7200;52.194;9.900;2023-04-25T06:05:24;21.63;;;4.67;;
14231;SDS011;7200;52.194;9.900;2023-04-25T06:07:49;2.93;;;2.23;;
14231;SDS011;7200;52.194;9.900;2023-04-25T06:10:15;13.37;;;3.23;;
14231;SDS011;7200;52.194;9.900;2023-04-25T06:12:40;4.57;;;1.30;;
14231;SDS011;7200;52.194;9.900;2023-04-25T06:15:06;6.57;;;2.87;;
14231;SDS011;7200;52.194;9.900;2023-04-25T06:17:32;5.97;;;2.77;;
14231;SDS011;7200;52.194;9.900;2023-04-25T06:19:57;10.70;;;2.60;;
14231;SDS011;7200;52.194;9.900;2023-04-25T06:22:23;6.30;;;2.17;;
14231;SDS011;7200;52.194;9.900;2023-04-25T06:24:48;1.17;;;1.03;;
14231;SDS011;7200;52.194;9.900;2023-04-25T06:27:13;6.03;;;2.43;;
14231;SDS011;7200;52.194;9.900;2023-04-25T06:29:38;20.67;;;2.97;;
14231;SDS011;7200;52.194;9.900;2023-04-25T06:32:04;9.43;;;2.47;;
14231;SDS011;7200;52.194;9.900;2023-04-25T06:34:30;14.27;;;3.00;;
14231;SDS011;7200;52.194;9.900;2023-04-25T06:36:55;17.63;;;3.00;;
14231;SDS011;7200;52.194;9.900;2023-04-25T06:39:20;5.87;;;1.90;;
14231;SDS011;7200;52.194;9.900;2023-04-25T06:41:48;5.50;;;2.40;;
14231;SDS011;7200;52.194;9.900;2023-04-25T06:44:13;9.90;;;1.90;;
14231;SDS011;7200;52.194;9.900;2023-04-25T06:46:39;5.47;;;2.23;;
14231;SDS011;7200;52.194;9.900;2023-04-25T06:49:04;4.90;;;2.30;;
14231;SDS011;7200;52.194;9.900;2023-04-25T06:51:30;6.70;;;2.20;;
14231;SDS011;7200;52.194;9.900;2023-04-25T06:53:55;8.33;;;2.40;;
14231;SDS011;7200;52.194;9.900;2023-04-25T06:56:21;5.40;;;2.20;;
14231;SDS011;7200;52.194;9.900;2023-04-25T06:58:46;6.67;;;2.50;;
14231;SDS011;7200;52.194;9.900;2023-04-25T07:01:11;2.30;;;1.03;;
14231;SDS011;7200;52.194;9.900;2023-04-25T07:03:37;6.13;;;2.17;;
14231;SDS011;7200;52.194;9.900;2023-04-25T07:06:03;14.37;;;2.33;;
14231;SDS011;7200;52.194;9.900;2023-04-25T07:08:28;4.10;;;1.33;;
14231;SDS011;7200;52.194;9.900;2023-04-25T07:10:54;7.13;;;2.13;;
14231;SDS011;7200;52.194;9.900;2023-04-25T07:13:19;7.93;;;2.10;;
14231;SDS011;7200;52.194;9.900;2023-04-25T07:15:45;7.70;;;2.10;;
14231;SDS011;7200;52.194;9.900;2023-04-25T07:18:12;9.07;;;2.30;;
14231;SDS011;7200;52.194;9.900;2023-04-25T07:20:37;9.87;;;2.10;;
14231;SDS011;7200;52.194;9.900;2023-04-25T07:23:02;12.50;;;2.27;;
14231;SDS011;7200;52.194;9.900;2023-04-25T07:25:28;3.77;;;2.00;;
14231;SDS011;7200;52.194;9.900;2023-04-25T07:27:53;5.37;;;2.10;;
14231;SDS011;7200;52.194;9.900;2023-04-25T07:30:19;8.50;;;1.73;;
14231;SDS011;7200;52.194;9.900;2023-04-25T07:32:44;6.10;;;1.87;;
14231;SDS011;7200;52.194;9.900;2023-04-25T07:35:10;8.93;;;1.30;;
14231;SDS011;7200;52.194;9.900;2023-04-25T07:37:35;4.57;;;2.17;;
14231;SDS011;7200;52.194;9.900;2023-04-25T07:40:01;9.57;;;1.50;;
14231;SDS011;7200;52.194;9.900;2023-04-25T07:42:30;5.43;;;2.00;;
14231;SDS011;7200;52.194;9.900;2023-04-25T07:44:55;11.30;;;2.67;;
14231;SDS011;7200;52.194;9.900;2023-04-25T07:47:21;8.60;;;2.40;;
14231;SDS011;7200;52.194;9.900;2023-04-25T07:49:46;4.30;;;1.87;;
14231;SDS011;7200;52.194;9.900;2023-04-25T07:52:11;5.30;;;1.90;;
14231;SDS011;7200;52.194;9.900;2023-04-25T07:54:37;7.67;;;2.10;;
14231;SDS011;7200;52.194;9.900;2023-04-25T07:57:02;6.70;;;1.50;;
14231;SDS011;7200;52.194;9.900;2023-04-25T07:59:27;4.10;;;1.77;;
14231;SDS011;7200;52.194;9.900;2023-04-25T08:01:53;5.40;;;1.97;;
14231;SDS011;7200;52.194;9.900;2023-04-25T08:04:18;7.13;;;1.97;;
14231;SDS011;7200;52.194;9.900;2023-04-25T08:06:43;7.90;;;2.57;;
14231;SDS011;7200;52.194;9.900;2023-04-25T08:09:09;10.17;;;2.67;;
14231;SDS011;7200;52.194;9.900;2023-04-25T08:11:34;2.73;;;1.47;;
14231;SDS011;7200;52.194;9.900;2023-04-25T08:14:00;7.63;;;2.23;;
14231;SDS011;7200;52.194;9.900;2023-04-25T08:16:25;4.53;;;1.20;;
14231;SDS011;7200;52.194;9.900;2023-04-25T08:18:51;2.40;;;1.17;;
14231;SDS011;7200;52.194;9.900;2023-04-25T08:21:16;8.23;;;2.17;;
14231;SDS011;7200;52.194;9.900;2023-04-25T08:23:41;6.07;;;1.93;;
14231;SDS011;7200;52.194;9.900;2023-04-25T08:26:07;5.63;;;2.70;;
14231;SDS011;7200;52.194;9.900;2023-04-25T08:28:32;6.23;;;2.00;;
14231;SDS011;7200;52.194;9.900;2023-04-25T08:30:57;4.37;;;2.03;;
14231;SDS011;7200;52.194;9.900;2023-04-25T08:33:22;6.20;;;2.07;;
14231;SDS011;7200;52.194;9.900;2023-04-25T08:35:48;7.30;;;1.70;;
14231;SDS011;7200;52.194;9.900;2023-04-25T08:38:13;3.87;;;1.43;;
14231;SDS011;7200;52.194;9.900;2023-04-25T08:40:39;3.57;;;1.43;;
14231;SDS011;7200;52.194;9.900;2023-04-25T08:43:06;7.30;;;0.93;;
14231;SDS011;7200;52.194;9.900;2023-04-25T08:45:36;2.83;;;1.17;;
14231;SDS011;7200;52.194;9.900;2023-04-25T08:48:07;4.77;;;2.27;;
14231;SDS011;7200;52.194;9.900;2023-04-25T08:50:45;2.00;;;1.63;;
14231;SDS011;7200;52.194;9.900;2023-04-25T08:53:37;4.40;;;1.53;;
14231;SDS011;7200;52.194;9.900;2023-04-25T08:56:07;5.80;;;2.07;;
14231;SDS011;7200;52.194;9.900;2023-04-25T08:58:34;4.37;;;1.33;;
14231;SDS011;7200;52.194;9.900;2023-04-25T09:01:00;3.90;;;1.73;;
14231;SDS011;7200;52.194;9.900;2023-04-25T09:03:25;1.37;;;1.10;;
14231;SDS011;7200;52.194;9.900;2023-04-25T09:05:51;2.27;;;1.20;;
14231;SDS011;7200;52.194;9.900;2023-04-25T09:08:17;7.63;;;1.53;;
14231;SDS011;7200;52.194;9.900;2023-04-25T09:10:43;4.60;;;1.63;;
14231;SDS011;7200;52.194;9.900;2023-04-25T09:13:10;3.80;;;1.27;;
14231;SDS011;7200;52.194;9.900;2023-04-25T09:15:46;4.63;;;1.40;;
14231;SDS011;7200;52.194;9.900;2023-04-25T09:18:26;3.60;;;1.27;;
14231;SDS011;7200;52.194;9.900;2023-04-25T09:20:53;5.53;;;1.60;;
14231;SDS011;7200;52.194;9.900;2023-04-25T09:23:46;5.23;;;2.37;;
14231;SDS011;7200;52.194;9.900;2023-04-25T09:26:16;3.23;;;1.43;;
14231;SDS011;7200;52.194;9.900;2023-04-25T09:28:43;9.10;;;2.17;;
14231;SDS011;7200;52.194;9.900;2023-04-25T09:31:09;5.20;;;1.57;;
14231;SDS011;7200;52.194;9.900;2023-04-25T09:33:36;2.73;;;1.23;;
14231;SDS011;7200;52.194;9.900;2023-04-25T09:36:03;3.20;;;2.00;;
14231;SDS011;7200;52.194;9.900;2023-04-25T09:38:31;8.30;;;1.77;;
14231;SDS011;7200;52.194;9.900;2023-04-25T09:40:57;1.80;;;1.00;;
14231;SDS011;7200;52.194;9.900;2023-04-25T09:43:23;3.67;;;1.63;;
14231;SDS011;7200;52.194;9.900;2023-04-25T09:45:50;6.70;;;1.33;;
14231;SDS011;7200;52.194;9.900;2023-04-25T09:48:18;2.33;;;1.20;;
14231;SDS011;7200;52.194;9.900;2023-04-25T09:50:45;1.90;;;0.73;;
14231;SDS011;7200;52.194;9.900;2023-04-25T09:53:28;3.23;;;1.10;;
14231;SDS011;7200;52.194;9.900;2023-04-25T09:55:53;0.87;;;0.73;;
14231;SDS011;7200;52.194;9.900;2023-04-25T09:58:21;4.30;;;1.73;;
14231;SDS011;7200;52.194;9.900;2023-04-25T10:00:50;0.90;;;0.77;;
14231;SDS011;7200;52.194;9.900;2023-04-25T10:03:17;2.50;;;0.80;;
14231;SDS011;7200;52.194;9.900;2023-04-25T10:05:43;2.30;;;0.73;;
14231;SDS011;7200;52.194;9.900;2023-04-25T10:08:11;2.67;;;0.93;;
14231;SDS011;7200;52.194;9.900;2023-04-25T10:10:37;4.90;;;1.40;;
14231;SDS011;7200;52.194;9.900;2023-04-25T10:13:05;2.57;;;0.70;;
14231;SDS011;7200;52.194;9.900;2023-04-25T10:15:32;0.73;;;0.43;;
14231;SDS011;7200;52.194;9.900;2023-04-25T10:18:00;1.53;;;0.70;;
14231;SDS011;7200;52.194;9.900;2023-04-25T10:20:27;3.53;;;1.27;;
14231;SDS011;7200;52.194;9.900;2023-04-25T10:22:53;3.10;;;1.17;;
14231;SDS011;7200;52.194;9.900;2023-04-25T10:25:21;1.70;;;0.63;;
14231;SDS011;7200;52.194;9.900;2023-04-25T10:27:49;3.07;;;1.00;;
14231;SDS011;7200;52.194;9.900;2023-04-25T10:30:16;2.20;;;1.40;;
14231;SDS011;7200;52.194;9.900;2023-04-25T10:32:43;3.03;;;0.80;;
14231;SDS011;7200;52.194;9.900;2023-04-25T10:35:13;0.50;;;0.43;;
14231;SDS011;7200;52.194;9.900;2023-04-25T10:40:39;1.70;;;1.00;;
14231;SDS011;7200;52.194;9.900;2023-04-25T10:46:01;3.83;;;0.97;;
14231;SDS011;7200;52.194;9.900;2023-04-25T10:48:30;0.27;;;0.23;;
14231;SDS011;7200;52.194;9.900;2023-04-25T10:51:12;2.13;;;0.40;;
14231;SDS011;7200;52.194;9.900;2023-04-25T10:53:45;21.27;;;1.43;;
14231;SDS011;7200;52.194;9.900;2023-04-25T10:58:47;1.80;;;0.70;;
14231;SDS011;7200;52.194;9.900;2023-04-25T11:01:13;0.50;;;0.50;;
14231;SDS011;7200;52.194;9.900;2023-04-25T11:03:40;4.03;;;2.00;;
14231;SDS011;7200;52.194;9.900;2023-04-25T11:06:11;1.97;;;1.27;;
14231;SDS011;7200;52.194;9.900;2023-04-25T11:08:51;2.60;;;1.10;;
14231;SDS011;7200;52.194;9.900;2023-04-25T11:11:17;5.00;;;0.73;;
14231;SDS011;7200;52.194;9.900;2023-04-25T11:13:43;0.60;;;0.60;;
14231;SDS011;7200;52.194;9.900;2023-04-25T11:16:09;6.60;;;1.73;;
14231;SDS011;7200;52.194;9.900;2023-04-25T11:18:34;4.60;;;0.83;;
14231;SDS011;7200;52.194;9.900;2023-04-25T11:21:00;0.80;;;0.80;;
14231;SDS011;7200;52.194;9.900;2023-04-25T11:23:25;3.40;;;1.57;;
14231;SDS011;7200;52.194;9.900;2023-04-25T11:25:51;1.30;;;0.60;;
14231;SDS011;7200;52.194;9.900;2023-04-25T11:28:20;5.40;;;0.90;;
14231;SDS011;7200;52.194;9.900;2023-04-25T11:30:49;1.37;;;0.43;;
14231;SDS011;7200;52.194;9.900;2023-04-25T11:33:15;1.23;;;0.83;;
14231;SDS011;7200;52.194;9.900;2023-04-25T11:35:41;4.60;;;1.10;;
14231;SDS011;7200;52.194;9.900;2023-04-25T11:38:06;1.50;;;0.80;;
14231;SDS011;7200;52.194;9.900;2023-04-25T11:40:32;3.00;;;0.90;;
14231;SDS011;7200;52.194;9.900;2023-04-25T11:42:59;3.87;;;1.90;;
14231;SDS011;7200;52.194;9.900;2023-04-25T11:45:25;3.30;;;1.07;;
14231;SDS011;7200;52.194;9.900;2023-04-25T11:47:51;1.37;;;1.17;;
14231;SDS011;7200;52.194;9.900;2023-04-25T11:50:16;1.67;;;0.60;;
14231;SDS011;7200;52.194;9.900;2023-04-25T11:52:42;8.43;;;1.40;;
14231;SDS011;7200;52.194;9.900;2023-04-25T11:55:12;1.93;;;0.87;;
14231;SDS011;7200;52.194;9.900;2023-04-25T11:57:38;4.53;;;1.77;;
14231;SDS011;7200;52.194;9.900;2023-04-25T12:00:12;2.80;;;1.67;;
14231;SDS011;7200;52.194;9.900;2023-04-25T12:02:46;1.20;;;1.10;;
14231;SDS011;7200;52.194;9.900;2023-04-25T12:05:13;2.13;;;1.47;;
14231;SDS011;7200;52.194;9.900;2023-04-25T12:07:43;3.00;;;1.37;;
14231;SDS011;7200;52.194;9.900;2023-04-25T12:10:10;2.17;;;1.33;;
14231;SDS011;7200;52.194;9.900;2023-04-25T12:12:37;4.03;;;1.80;;
14231;SDS011;7200;52.194;9.900;2023-04-25T12:15:09;2.97;;;1.50;;
14231;SDS011;7200;52.194;9.900;2023-04-25T12:17:35;5.00;;;1.97;;
14231;SDS011;7200;52.194;9.900;2023-04-25T12:20:21;9.00;;;1.30;;
14231;SDS011;7200;52.194;9.900;2023-04-25T12:22:50;1.50;;;1.13;;
14231;SDS011;7200;52.194;9.900;2023-04-25T12:28:20;3.07;;;1.40;;
14231;SDS011;7200;52.194;9.900;2023-04-25T12:31:06;6.47;;;1.80;;
14231;SDS011;7200;52.194;9.900;2023-04-25T12:33:35;1.93;;;1.03;;
14231;SDS011;7200;52.194;9.900;2023-04-25T12:36:02;1.10;;;0.80;;
14231;SDS011;7200;52.194;9.900;2023-04-25T12:38:35;0.90;;;0.70;;
14231;SDS011;7200;52.194;9.900;2023-04-25T12:41:03;5.17;;;0.80;;
14231;SDS011;7200;52.194;9.900;2023-04-25T12:43:28;3.30;;;1.23;;
14231;SDS011;7200;52.194;9.900;2023-04-25T12:45:54;2.90;;;1.23;;
14231;SDS011;7200;52.194;9.900;2023-04-25T12:48:20;5.67;;;0.83;;
14231;SDS011;7200;52.194;9.900;2023-04-25T12:50:46;1.80;;;1.17;;
14231;SDS011;7200;52.194;9.900;2023-04-25T12:53:18;5.90;;;1.20;;
14231;SDS011;7200;52.194;9.900;2023-04-25T12:55:45;2.63;;;0.87;;
14231;SDS011;7200;52.194;9.900;2023-04-25T12:58:11;1.03;;;0.50;;
14231;SDS011;7200;52.194;9.900;2023-04-25T13:00:37;3.67;;;0.80;;
14231;SDS011;7200;52.194;9.900;2023-04-25T13:03:03;2.23;;;0.93;;
14231;SDS011;7200;52.194;9.900;2023-04-25T13:05:29;1.03;;;0.70;;
14231;SDS011;7200;52.194;9.900;2023-04-25T13:07:55;1.57;;;0.50;;
14231;SDS011;7200;52.194;9.900;2023-04-25T13:10:21;0.67;;;0.50;;
14231;SDS011;7200;52.194;9.900;2023-04-25T13:12:46;0.93;;;0.60;;
14231;SDS011;7200;52.194;9.900;2023-04-25T13:15:12;2.00;;;0.80;;
14231;SDS011;7200;52.194;9.900;2023-04-25T13:17:37;0.93;;;0.30;;
14231;SDS011;7200;52.194;9.900;2023-04-25T13:20:04;0.97;;;0.70;;
14231;SDS011;7200;52.194;9.900;2023-04-25T13:22:34;3.20;;;0.80;;
14231;SDS011;7200;52.194;9.900;2023-04-25T13:25:02;3.07;;;0.93;;
14231;SDS011;7200;52.194;9.900;2023-04-25T13:27:28;2.90;;;1.37;;
14231;SDS011;7200;52.194;9.900;2023-04-25T13:29:53;1.90;;;1.40;;
14231;SDS011;7200;52.194;9.900;2023-04-25T13:32:19;0.70;;;0.67;;
14231;SDS011;7200;52.194;9.900;2023-04-25T13:34:44;0.73;;;0.73;;
14231;SDS011;7200;52.194;9.900;2023-04-25T13:37:10;2.37;;;0.80;;
14231;SDS011;7200;52.194;9.900;2023-04-25T13:39:35;2.80;;;1.10;;
14231;SDS011;7200;52.194;9.900;2023-04-25T13:42:00;11.40;;;1.50;;
14231;SDS011;7200;52.194;9.900;2023-04-25T13:44:26;0.30;;;0.30;;
14231;SDS011;7200;52.194;9.900;2023-04-25T13:46:52;3.80;;;0.90;;
14231;SDS011;7200;52.194;9.900;2023-04-25T13:49:17;2.23;;;1.00;;
14231;SDS011;7200;52.194;9.900;2023-04-25T13:51:42;2.33;;;0.80;;
14231;SDS011;7200;52.194;9.900;2023-04-25T13:54:08;1.60;;;0.67;;
14231;SDS011;7200;52.194;9.900;2023-04-25T13:56:33;2.43;;;0.83;;
14231;SDS011;7200;52.194;9.900;2023-04-25T13:58:59;1.93;;;0.83;;
14231;SDS011;7200;52.194;9.900;2023-04-25T14:01:24;0.70;;;0.50;;
14231;SDS011;7200;52.194;9.900;2023-04-25T14:03:49;9.73;;;0.90;;
14231;SDS011;7200;52.194;9.900;2023-04-25T14:06:15;0.83;;;0.73;;
14231;SDS011;7200;52.194;9.900;2023-04-25T14:08:47;1.50;;;0.87;;
14231;SDS011;7200;52.194;9.900;2023-04-25T14:11:12;0.50;;;0.50;;
14231;SDS011;7200;52.194;9.900;2023-04-25T14:13:38;4.67;;;1.47;;
14231;SDS011;7200;52.194;9.900;2023-04-25T14:16:03;1.63;;;1.07;;
14231;SDS011;7200;52.194;9.900;2023-04-25T14:18:29;2.87;;;0.80;;
14231;SDS011;7200;52.194;9.900;2023-04-25T14:20:54;1.50;;;0.80;;
14231;SDS011;7200;52.194;9.900;2023-04-25T14:23:19;1.47;;;0.73;;
14231;SDS011;7200;52.194;9.900;2023-04-25T14:25:44;1.77;;;0.90;;
14231;SDS011;7200;52.194;9.900;2023-04-25T14:28:10;1.50;;;1.03;;
14231;SDS011;7200;52.194;9.900;2023-04-25T14:30:35;1.37;;;0.43;;
14231;SDS011;7200;52.194;9.900;2023-04-25T14:33:01;2.23;;;1.23;;
14231;SDS011;7200;52.194;9.900;2023-04-25T14:35:26;3.43;;;1.37;;
14231;SDS011;7200;52.194;9.900;2023-04-25T14:37:52;1.93;;;0.87;;
14231;SDS011;7200;52.194;9.900;2023-04-25T14:40:18;1.53;;;1.30;;
14231;SDS011;7200;52.194;9.900;2023-04-25T14:42:43;1.80;;;1.30;;
14231;SDS011;7200;52.194;9.900;2023-04-25T14:45:08;1.43;;;0.93;;
14231;SDS011;7200;52.194;9.900;2023-04-25T14:47:35;0.73;;;0.60;;
14231;SDS011;7200;52.194;9.900;2023-04-25T14:50:01;1.00;;;1.00;;
14231;SDS011;7200;52.194;9.900;2023-04-25T14:52:27;0.53;;;0.53;;
14231;SDS011;7200;52.194;9.900;2023-04-25T14:54:52;1.20;;;0.97;;
14231;SDS011;7200;52.194;9.900;2023-04-25T14:57:18;1.20;;;1.00;;
14231;SDS011;7200;52.194;9.900;2023-04-25T14:59:43;2.50;;;1.20;;
14231;SDS011;7200;52.194;9.900;2023-04-25T15:02:09;0.93;;;0.73;;
14231;SDS011;7200;52.194;9.900;2023-04-25T15:04:34;0.77;;;0.77;;
14231;SDS011;7200;52.194;9.900;2023-04-25T15:06:59;0.90;;;0.80;;